Time;durP1;ratioP1;P1;durP2;ratioP2;P2;SDS_P1;SDS_P2;PMS_P1;PMS_P2;Temp;Humidity;BMP_temperature;BMP_pressure;BME280_temperature;BME280_humidity;BME280_pressure;Samples;Min_cycle;Max_cycle;Signal;HPM_P1;HPM_P2
2021/07/21 00:00:56;;;;;;;20.10;9.23;;;;;;;18.13;61.02;98891.35;125465;1098;103061;-74
2021/07/21 00:03:28;;;;;;;20.73;9.60;;;;;;;18.11;61.11;98890.67;125498;1100;103025;-73
2021/07/21 00:05:56;;;;;;;20.93;9.10;;;;;;;18.09;60.75;98898.06;125460;1098;102947;-74
2021/07/21 00:08:24;;;;;;;22.60;9.27;;;;;;;18.07;60.81;98886.63;125437;1100;103017;-75
2021/07/21 00:13:27;;;;;;;19.97;8.83;;;;;;;18.06;61.20;98884.94;125457;1100;102948;-74
2021/07/21 00:13:44;;;;;;;21.80;9.30;;;;;;;18.06;61.38;98893.02;125429;1098;102962;-74
2021/07/21 00:18:50;;;;;;;18.83;8.57;;;;;;;18.04;60.94;98881.56;125595;1099;102950;-74
2021/07/21 00:21:26;;;;;;;19.47;7.93;;;;;;;18.04;61.10;98892.33;125382;1100;103065;-74
2021/07/21 00:23:54;;;;;;;20.05;8.90;;;;;;;17.99;61.47;98893.66;125433;1099;103026;-74
2021/07/21 00:26:23;;;;;;;20.00;8.70;;;;;;;18.00;61.50;98891.83;125444;1100;103043;-74
2021/07/21 00:28:51;;;;;;;18.67;8.00;;;;;;;17.99;61.13;98899.05;125274;1098;103068;-74
2021/07/21 00:31:19;;;;;;;19.90;9.00;;;;;;;17.98;61.52;98908.09;125768;1098;102956;-75
2021/07/21 00:33:48;;;;;;;18.60;8.33;;;;;;;17.99;61.44;98896.35;125380;1097;102946;-74
2021/07/21 00:36:20;;;;;;;19.63;8.10;;;;;;;17.96;61.36;98904.72;125588;1100;103553;-74
2021/07/21 00:38:48;;;;;;;21.60;8.27;;;;;;;17.94;61.41;98893.28;125423;1098;102961;-74
2021/07/21 00:41:16;;;;;;;19.03;7.97;;;;;;;17.93;61.57;98904.22;125518;1099;102901;-73
2021/07/21 00:43:45;;;;;;;19.87;8.77;;;;;;;17.92;61.63;98898.01;125471;1100;102950;-74
2021/07/21 00:46:13;;;;;;;18.43;7.37;;;;;;;17.90;61.60;98891.95;125439;1098;103464;-74
2021/07/21 00:48:44;;;;;;;17.60;7.63;;;;;;;17.88;61.69;98890.41;125473;1100;103043;-75
2021/07/21 00:51:13;;;;;;;18.83;7.67;;;;;;;17.86;61.55;98890.58;125417;1099;103025;-75
2021/07/21 00:53:45;;;;;;;18.53;8.00;;;;;;;17.84;61.69;98888.04;125419;1100;103109;-74
2021/07/21 00:56:16;;;;;;;19.50;8.23;;;;;;;17.81;61.71;98885.67;125516;1100;102951;-73
2021/07/21 00:58:47;;;;;;;18.47;8.17;;;;;;;17.78;61.74;98886.00;125498;1100;103025;-73
2021/07/21 01:01:16;;;;;;;21.03;8.27;;;;;;;17.77;61.86;98896.94;125538;1100;102997;-74
2021/07/21 01:03:47;;;;;;;20.23;7.97;;;;;;;17.75;62.00;98893.56;125426;1100;103030;-74
2021/07/21 01:06:16;;;;;;;18.03;7.27;;;;;;;17.75;61.99;98890.88;125436;1100;103074;-73
2021/07/21 01:08:45;;;;;;;18.13;7.60;;;;;;;17.73;62.16;98890.19;125423;1100;103065;-76
2021/07/21 01:11:28;;;;;;;19.40;7.80;;;;;;;17.71;62.42;98895.75;125407;1100;103038;-75
2021/07/21 01:14:04;;;;;;;21.73;7.90;;;;;;;17.67;62.38;98897.90;125441;1100;102949;-74
2021/07/21 01:16:43;;;;;;;18.90;6.20;;;;;;;17.64;62.51;98897.39;125467;1098;103034;-75
2021/07/21 01:19:41;;;;;;;15.50;6.80;;;;;;;17.62;62.38;98894.02;125463;1100;103025;-74
2021/07/21 01:22:20;;;;;;;14.03;6.50;;;;;;;17.58;62.43;98884.59;125422;1100;103093;-75
2021/07/21 01:25:04;;;;;;;17.43;7.50;;;;;;;17.56;62.87;98884.73;125432;1098;102958;-75
2021/07/21 01:27:55;;;;;;;16.27;6.43;;;;;;;17.52;62.73;98892.29;125432;1100;103071;-75
2021/07/21 01:30:37;;;;;;;18.30;6.73;;;;;;;17.51;62.79;98879.02;125420;1100;102943;-75
2021/07/21 01:33:14;;;;;;;19.17;6.97;;;;;;;17.50;62.81;98883.54;125470;1098;102958;-75
2021/07/21 01:36:28;;;;;;;14.43;6.43;;;;;;;17.46;62.95;98889.41;125497;1100;103088;-74
2021/07/21 01:39:08;;;;;;;16.10;7.10;;;;;;;17.39;63.12;98878.44;125404;1099;102949;-74
2021/07/21 01:41:45;;;;;;;14.13;6.70;;;;;;;17.34;62.98;98883.45;125419;1098;102920;-75
2021/07/21 01:44:26;;;;;;;15.67;5.23;;;;;;;17.31;63.37;98879.25;125472;1100;103004;-76
2021/07/21 01:47:01;;;;;;;19.77;6.30;;;;;;;17.25;62.99;98883.42;125404;1100;103045;-74
2021/07/21 01:49:39;;;;;;;17.27;6.60;;;;;;;17.22;63.32;98882.88;125436;1098;102948;-74
2021/07/21 01:52:15;;;;;;;15.60;6.23;;;;;;;17.20;63.52;98884.89;125416;1100;103055;-71
2021/07/21 01:54:49;;;;;;;17.07;5.93;;;;;;;17.18;63.19;98892.27;125438;1100;103438;-75
2021/07/21 01:57:22;;;;;;;15.27;6.53;;;;;;;17.19;63.69;98893.95;125289;1098;103095;-74
2021/07/21 01:59:54;;;;;;;12.73;5.93;;;;;;;17.20;63.74;98903.70;125469;1098;103106;-76
2021/07/21 02:02:26;;;;;;;15.63;5.67;;;;;;;17.20;63.84;98903.70;125449;1099;103011;-74
2021/07/21 02:04:59;;;;;;;12.10;5.90;;;;;;;17.19;63.69;98899.33;125433;1099;103453;-74
2021/07/21 02:07:31;;;;;;;12.35;5.68;;;;;;;17.17;63.56;98904.88;125468;1100;103074;-74
2021/07/21 02:10:06;;;;;;;12.55;5.10;;;;;;;17.15;64.03;98908.70;125440;1100;102926;-74
2021/07/21 02:12:39;;;;;;;12.63;5.00;;;;;;;17.16;63.72;98907.70;125430;1100;103068;-74
2021/07/21 02:15:07;;;;;;;8.37;4.27;;;;;;;17.13;64.03;98903.50;125482;1100;102946;-75
2021/07/21 02:17:40;;;;;;;10.50;4.73;;;;;;;17.11;64.00;98908.19;125358;1100;103047;-75
2021/07/21 02:20:13;;;;;;;9.68;4.78;;;;;;;17.09;63.99;98910.19;125486;1098;102923;-74
2021/07/21 02:22:45;;;;;;;12.38;4.65;;;;;;;17.06;63.81;98914.05;125477;1098;102923;-75
2021/07/21 02:25:23;;;;;;;13.75;5.03;;;;;;;17.04;63.96;98918.73;125420;1098;102924;-75
2021/07/21 02:27:55;;;;;;;12.40;5.10;;;;;;;17.01;64.09;98919.05;125437;1100;103014;-74
2021/07/21 02:30:27;;;;;;;12.60;5.10;;;;;;;16.98;64.02;98921.19;125413;1100;103031;-74
2021/07/21 02:33:20;;;;;;;14.27;6.03;;;;;;;16.94;64.08;98924.15;125432;1100;103022;-75
2021/07/21 02:35:48;;;;;;;15.20;5.80;;;;;;;16.91;64.35;98929.00;125475;1100;102987;-75
2021/07/21 02:38:20;;;;;;;12.33;5.90;;;;;;;16.89;64.43;98929.17;125607;1098;102894;-75
2021/07/21 02:40:51;;;;;;;11.13;5.37;;;;;;;16.88;64.37;98929.31;125535;1100;103021;-77
2021/07/21 02:43:26;;;;;;;12.83;5.63;;;;;;;16.82;64.55;98928.94;125436;1098;103076;-77
2021/07/21 02:45:54;;;;;;;15.40;6.20;;;;;;;16.79;64.54;98925.73;125426;1100;103025;-74
2021/07/21 02:48:22;;;;;;;17.47;7.20;;;;;;;16.80;64.80;98930.92;125443;1100;102932;-73
2021/07/21 02:50:58;;;;;;;16.80;6.67;;;;;;;16.79;64.65;98926.55;125477;1098;102923;-75
2021/07/21 02:53:37;;;;;;;16.43;6.47;;;;;;;16.80;64.60;98930.10;125452;1100;103090;-74
2021/07/21 02:56:10;;;;;;;15.87;6.80;;;;;;;16.76;64.84;98931.41;125400;1100;103012;-75
2021/07/21 02:59:13;;;;;;;22.20;7.00;;;;;;;16.75;64.68;98932.41;125443;1100;103044;-75
2021/07/21 03:01:48;;;;;;;17.95;7.30;;;;;;;16.71;64.88;98939.91;125439;1099;103033;-75
2021/07/21 03:04:24;;;;;;;16.67;7.17;;;;;;;16.70;65.05;98934.70;125491;1098;102923;-76
2021/07/21 03:06:57;;;;;;;16.83;7.50;;;;;;;16.69;64.93;98947.30;124844;1100;103149;-75
2021/07/21 03:09:29;;;;;;;17.33;7.00;;;;;;;16.68;65.26;98945.61;125404;1100;103008;-76
2021/07/21 03:12:03;;;;;;;16.53;6.97;;;;;;;16.65;65.00;98945.92;125477;1099;102932;-75
2021/07/21 03:14:37;;;;;;;19.58;7.98;;;;;;;16.63;65.34;98955.97;125282;1100;103043;-73
2021/07/21 03:17:13;;;;;;;19.83;7.67;;;;;;;16.61;65.18;98955.28;125261;1099;102925;-74
2021/07/21 03:19:50;;;;;;;20.10;8.03;;;;;;;16.60;65.38;98950.91;125352;1098;103041;-74
2021/07/21 03:22:26;;;;;;;18.27;7.10;;;;;;;16.58;65.22;98951.05;125867;1098;102934;-74
2021/07/21 03:24:57;;;;;;;20.03;8.33;;;;;;;16.59;65.52;98959.95;125438;1098;103049;-73
2021/07/21 03:27:30;;;;;;;19.30;8.25;;;;;;;16.57;65.72;98957.41;125435;1098;103014;-73
2021/07/21 03:30:04;;;;;;;18.60;7.57;;;;;;;16.57;65.70;98959.27;125446;1098;103070;-72
2021/07/21 03:32:36;;;;;;;19.40;8.47;;;;;;;16.55;65.82;98966.63;125430;1100;103016;-74
2021/07/21 03:35:09;;;;;;;19.20;7.63;;;;;;;16.53;65.79;98966.77;125383;1100;103152;-74
2021/07/21 03:37:46;;;;;;;19.88;7.35;;;;;;;16.52;65.69;98976.67;124827;1098;102926;-74
2021/07/21 03:40:18;;;;;;;15.60;6.70;;;;;;;16.51;65.98;98972.30;125434;1098;102923;-73
2021/07/21 03:42:54;;;;;;;18.00;8.33;;;;;;;16.52;66.10;98978.50;125608;1100;103007;-74
2021/07/21 03:45:31;;;;;;;16.48;7.65;;;;;;;16.52;65.81;98976.67;125469;1098;103077;-73
2021/07/21 03:48:00;;;;;;;20.27;7.40;;;;;;;16.51;65.93;98982.17;125383;1098;102924;-72
2021/07/21 03:50:30;;;;;;;20.60;8.23;;;;;;;16.51;66.20;98976.81;125411;1098;103071;-73
2021/07/21 03:53:01;;;;;;;16.20;7.00;;;;;;;16.52;66.15;98983.87;125396;1099;103116;-75
2021/07/21 03:55:40;;;;;;;17.37;7.40;;;;;;;16.52;66.19;98984.73;125575;1098;102929;-76
2021/07/21 03:58:09;;;;;;;18.97;7.53;;;;;;;16.53;66.23;98980.19;125431;1100;102924;-75
2021/07/21 04:00:37;;;;;;;17.00;6.97;;;;;;;16.54;66.41;98981.05;125417;1100;102929;-74
2021/07/21 04:03:11;;;;;;;16.83;6.80;;;;;;;16.52;66.33;98982.04;125444;1100;103454;-74
2021/07/21 04:05:42;;;;;;;16.50;7.50;;;;;;;16.53;66.33;98993.61;125439;1099;103037;-73
2021/07/21 04:08:16;;;;;;;16.23;7.00;;;;;;;16.53;66.79;98998.98;125448;1098;102926;-72
2021/07/21 04:10:49;;;;;;;18.30;6.63;;;;;;;16.54;66.56;98994.47;125432;1100;103527;-72
2021/07/21 04:13:22;;;;;;;18.30;7.27;;;;;;;16.52;66.55;98995.47;125409;1100;102934;-72
2021/07/21 04:15:55;;;;;;;16.25;6.35;;;;;;;16.56;66.85;99003.22;125460;1100;102917;-75
2021/07/21 04:18:27;;;;;;;17.60;7.30;;;;;;;16.57;66.89;99002.22;125461;1098;103010;-80
2021/07/21 04:20:58;;;;;;;18.10;7.47;;;;;;;16.59;66.67;99002.92;125450;1100;102951;-77
2021/07/21 04:23:30;;;;;;;18.57;7.10;;;;;;;16.62;66.92;99007.98;125409;1100;103121;-81
2021/07/21 04:26:02;;;;;;;17.53;7.80;;;;;;;16.63;66.70;99004.30;125463;1098;104252;-87
2021/07/21 04:28:35;;;;;;;17.33;7.57;;;;;;;16.66;66.78;99010.20;125525;1098;102969;-82
2021/07/21 04:31:06;;;;;;;14.93;7.15;;;;;;;16.70;66.80;99016.13;125470;1100;102995;-77
2021/07/21 04:33:35;;;;;;;18.07;7.23;;;;;;;16.74;66.87;99013.97;125474;1098;103039;-72
2021/07/21 04:36:04;;;;;;;16.67;6.23;;;;;;;16.78;67.11;99008.13;125539;1098;102923;-72
2021/07/21 04:38:35;;;;;;;16.60;6.80;;;;;;;16.85;67.08;99015.58;125519;1098;102910;-71
2021/07/21 04:41:06;;;;;;;15.53;6.93;;;;;;;16.89;67.00;99015.14;125526;1100;102925;-71
2021/07/21 04:43:35;;;;;;;18.30;7.27;;;;;;;16.94;67.12;99015.48;125475;1099;102926;-72
2021/07/21 04:46:09;;;;;;;17.57;7.37;;;;;;;17.00;67.17;99011.39;125485;1100;103144;-72
2021/07/21 04:48:41;;;;;;;19.33;7.20;;;;;;;17.07;67.37;99016.98;125493;1098;102910;-70
2021/07/21 04:51:16;;;;;;;16.20;6.75;;;;;;;17.10;66.99;99019.36;125514;1097;102958;-72
2021/07/21 04:53:44;;;;;;;18.60;6.33;;;;;;;17.17;67.51;99027.64;125511;1098;102929;-72
2021/07/21 04:56:12;;;;;;;14.60;6.23;;;;;;;17.19;67.43;99028.33;125535;1098;103099;-73
2021/07/21 04:58:47;;;;;;;16.90;7.03;;;;;;;17.19;67.24;99026.50;125573;1098;102923;-75
2021/07/21 05:01:17;;;;;;;16.57;7.63;;;;;;;17.19;67.50;99026.50;125567;1097;103113;-72
2021/07/21 05:03:49;;;;;;;16.77;6.27;;;;;;;17.19;67.16;99034.56;125542;1100;102918;-73
2021/07/21 05:06:17;;;;;;;15.90;7.37;;;;;;;17.21;67.55;99035.26;125526;1098;102926;-76
2021/07/21 05:08:45;;;;;;;17.07;7.10;;;;;;;17.22;67.17;99033.40;125514;1098;102951;-74
2021/07/21 05:11:14;;;;;;;15.67;6.60;;;;;;;17.25;67.42;99035.78;125476;1098;102929;-73
2021/07/21 05:13:42;;;;;;;23.33;7.10;;;;;;;17.31;67.65;99042.39;125411;1098;103026;-73
2021/07/21 05:16:11;;;;;;;15.03;6.63;;;;;;;17.37;67.48;99044.44;125369;1098;102941;-71
2021/07/21 05:18:42;;;;;;;17.60;7.37;;;;;;;17.40;67.42;99054.88;125551;1098;102945;-71
2021/07/21 05:21:11;;;;;;;17.13;6.90;;;;;;;17.43;67.09;99049.19;125396;1100;103662;-73
2021/07/21 05:23:39;;;;;;;15.50;7.00;;;;;;;17.49;67.46;99055.80;125495;1100;102925;-72
2021/07/21 05:26:14;;;;;;;18.67;7.73;;;;;;;17.51;67.46;99051.12;125457;1100;103467;-70
2021/07/21 05:28:42;;;;;;;19.83;7.73;;;;;;;17.56;67.81;99062.22;125401;1098;103041;-71
2021/07/21 05:31:10;;;;;;;18.43;7.20;;;;;;;17.60;67.80;99063.59;125488;1098;103039;-71
2021/07/21 05:33:39;;;;;;;16.37;7.20;;;;;;;17.64;67.37;99066.83;125423;1098;103083;-72
2021/07/21 05:36:08;;;;;;;19.83;7.23;;;;;;;17.68;67.26;99057.45;125465;1098;103007;-71
2021/07/21 05:38:36;;;;;;;19.00;7.10;;;;;;;17.71;67.42;99062.52;125465;1100;102972;-71
2021/07/21 05:41:06;;;;;;;16.53;7.07;;;;;;;17.74;67.52;99066.72;124799;1100;103143;-71
2021/07/21 05:43:37;;;;;;;17.33;7.27;;;;;;;17.78;67.86;99065.41;125437;1099;103084;-70
2021/07/21 05:46:05;;;;;;;17.50;6.75;;;;;;;17.82;67.69;99069.47;125428;1100;103033;-72
2021/07/21 05:48:34;;;;;;;17.97;7.20;;;;;;;17.81;67.53;99073.99;125402;1100;103034;-69
2021/07/21 05:51:05;;;;;;;23.47;7.60;;;;;;;17.83;67.37;99071.98;125305;1098;102932;-69
2021/07/21 05:53:33;;;;;;;16.47;6.97;;;;;;;17.85;67.49;99078.05;125391;1100;102927;-70
2021/07/21 05:56:01;;;;;;;18.17;6.90;;;;;;;17.90;67.52;99079.43;125453;1098;103047;-71
2021/07/21 05:58:30;;;;;;;19.97;7.13;;;;;;;17.95;67.85;99074.42;125458;1098;102927;-71
2021/07/21 06:00:58;;;;;;;17.33;7.10;;;;;;;17.96;67.93;99085.02;125472;1100;103106;-70
2021/07/21 06:03:27;;;;;;;15.63;6.33;;;;;;;18.01;67.51;99087.28;125453;1100;103210;-74
2021/07/21 06:05:58;;;;;;;16.70;7.20;;;;;;;18.09;67.78;99086.47;125410;1100;102936;-72
2021/07/21 06:08:26;;;;;;;20.50;7.77;;;;;;;18.18;67.73;99095.42;125427;1097;103045;-71
2021/07/21 06:11:00;;;;;;;17.60;7.17;;;;;;;18.23;67.92;99103.86;125455;1100;102930;-74
2021/07/21 06:13:30;;;;;;;15.40;6.60;;;;;;;18.28;68.00;99104.23;125567;1098;103424;-75
2021/07/21 06:16:06;;;;;;;16.43;7.03;;;;;;;18.38;67.79;99104.96;125425;1100;103012;-74
2021/07/21 06:18:37;;;;;;;16.97;6.87;;;;;;;18.51;67.99;99107.20;125404;1099;103150;-75
2021/07/21 06:21:09;;;;;;;19.73;7.13;;;;;;;18.59;68.02;99099.16;125468;1098;103048;-78
2021/07/21 06:23:37;;;;;;;20.40;7.23;;;;;;;18.74;68.05;99103.93;125432;1098;103586;-79
2021/07/21 06:26:06;;;;;;;16.83;6.07;;;;;;;18.84;67.57;99098.39;125479;1098;102927;-78
2021/07/21 06:28:34;;;;;;;14.07;6.33;;;;;;;18.92;67.58;99111.89;125430;1099;103100;-73
2021/07/21 06:31:03;;;;;;;15.27;6.67;;;;;;;19.00;68.04;99111.09;125982;1100;103011;-74
2021/07/21 06:33:34;;;;;;;16.67;6.67;;;;;;;19.08;67.62;99113.81;125440;1100;103148;-76
2021/07/21 06:36:02;;;;;;;15.77;6.53;;;;;;;19.21;67.53;99118.71;125411;1100;103399;-75
2021/07/21 06:38:31;;;;;;;17.70;6.60;;;;;;;19.36;67.73;99118.06;125448;1098;102947;-76
2021/07/21 06:41:02;;;;;;;15.43;7.20;;;;;;;19.45;67.78;99120.59;125447;1099;103007;-71
2021/07/21 06:43:30;;;;;;;14.90;6.40;;;;;;;19.48;67.78;99128.34;125429;1099;103219;-70
2021/07/21 06:45:59;;;;;;;20.87;6.57;;;;;;;19.48;67.57;99130.19;125511;1098;103001;-72
2021/07/21 06:48:27;;;;;;;18.83;6.60;;;;;;;19.48;67.77;99131.05;125530;1098;103016;-71
2021/07/21 06:50:55;;;;;;;17.60;6.23;;;;;;;19.43;67.69;99133.40;125526;1098;102940;-72
2021/07/21 06:53:30;;;;;;;13.63;6.10;;;;;;;19.40;67.23;99130.17;124896;1099;103062;-72
2021/07/21 06:56:03;;;;;;;15.87;6.40;;;;;;;19.38;67.44;99141.14;125437;1098;102920;-71
2021/07/21 06:58:34;;;;;;;17.45;6.18;;;;;;;19.38;67.55;99143.84;125472;1100;103018;-71
2021/07/21 07:01:02;;;;;;;15.83;6.70;;;;;;;19.40;67.36;99141.82;125470;1100;103097;-71
2021/07/21 07:03:37;;;;;;;13.63;6.33;;;;;;;19.46;67.13;99138.46;125484;1100;103073;-71
2021/07/21 07:06:06;;;;;;;14.53;6.47;;;;;;;19.49;67.42;99134.57;125424;1100;102925;-72
2021/07/21 07:08:34;;;;;;;17.40;6.47;;;;;;;19.53;67.38;99140.48;125411;1098;103057;-72
2021/07/21 07:11:06;;;;;;;21.20;7.60;;;;;;;19.57;67.20;99149.91;125458;1100;103022;-70
2021/07/21 07:13:40;;;;;;;14.63;6.00;;;;;;;19.62;67.18;99151.11;125482;1098;102958;-72
2021/07/21 07:16:14;;;;;;;16.77;6.77;;;;;;;20.10;67.01;99149.58;125353;1100;103058;-71
2021/07/21 07:18:45;;;;;;;14.67;5.70;;;;;;;20.61;66.75;99147.41;125434;1100;103000;-71
2021/07/21 07:21:14;;;;;;;15.30;6.90;;;;;;;20.76;67.06;99143.98;125437;1098;103022;-73
2021/07/21 07:23:42;;;;;;;14.23;6.03;;;;;;;21.00;67.12;99140.31;125484;1098;102924;-74
2021/07/21 07:26:10;;;;;;;17.60;6.00;;;;;;;21.18;67.19;99139.21;125440;1098;102948;-76
2021/07/21 07:28:39;;;;;;;16.13;6.10;;;;;;;21.48;67.30;99142.04;125494;1098;102919;-74
2021/07/21 07:31:07;;;;;;;14.43;6.80;;;;;;;21.58;66.83;99145.35;125511;1100;103080;-74
2021/07/21 07:33:38;;;;;;;16.17;6.27;;;;;;;21.67;67.23;99140.73;125430;1100;103073;-75
2021/07/21 07:36:07;;;;;;;16.25;5.95;;;;;;;21.94;67.02;99144.73;125496;1098;103427;-76
2021/07/21 07:38:35;;;;;;;14.80;6.13;;;;;;;22.51;66.85;99145.19;125456;1100;103033;-77
2021/07/21 07:41:04;;;;;;;15.07;5.90;;;;;;;23.11;66.27;99145.08;125504;1098;102954;-80
2021/07/21 07:43:36;;;;;;;15.77;6.17;;;;;;;23.86;66.13;99146.65;125451;1100;103100;-75
2021/07/21 07:46:08;;;;;;;;;;;;;;;24.56;65.60;99141.31;125452;1098;103036;-77
2021/07/21 07:48:37;;;;;;;16.65;6.30;;;;;;;25.25;66.11;99138.67;125413;1098;102932;-74
2021/07/21 07:51:06;;;;;;;15.87;6.40;;;;;;;25.98;65.47;99140.64;125384;1098;103075;-75
2021/07/21 07:53:38;;;;;;;13.83;5.80;;;;;;;27.01;64.96;99151.95;125501;1100;102921;-72
2021/07/21 07:56:09;;;;;;;11.93;5.43;;;;;;;27.83;64.96;99144.09;125371;1099;103013;-76
2021/07/21 07:58:38;;;;;;;17.47;5.50;;;;;;;27.99;65.30;99146.27;125363;1098;102919;-74
2021/07/21 08:01:06;;;;;;;18.70;6.20;;;;;;;28.24;64.67;99142.69;125481;1098;103016;-75
2021/07/21 08:03:35;;;;;;;14.40;5.30;;;;;;;28.63;64.23;99156.17;125389;1098;102943;-78
2021/07/21 08:06:03;;;;;;;13.77;6.17;;;;;;;28.68;64.18;99157.15;126076;1098;103028;-73
2021/07/21 08:08:32;;;;;;;13.73;6.33;;;;;;;28.39;64.52;99153.26;125435;1100;103355;-74
2021/07/21 08:11:03;;;;;;;14.80;5.50;;;;;;;28.14;63.75;99151.41;125419;1098;102943;-73
2021/07/21 08:13:35;;;;;;;13.00;5.57;;;;;;;28.24;63.86;99153.63;125441;1100;102938;-72
2021/07/21 08:16:09;;;;;;;17.03;6.27;;;;;;;28.53;63.30;99165.73;125439;1100;102927;-73
2021/07/21 08:18:37;;;;;;;16.83;6.33;;;;;;;28.30;63.08;99160.11;125389;1099;103093;-72
2021/07/21 08:21:06;;;;;;;17.07;6.37;;;;;;;28.26;62.64;99156.16;125488;1098;102996;-73
2021/07/21 08:23:37;;;;;;;16.20;6.53;;;;;;;28.22;62.55;99155.75;125430;1100;103088;-73
2021/07/21 08:26:06;;;;;;;14.93;6.58;;;;;;;28.23;62.12;99165.63;125436;1100;103109;-72
2021/07/21 08:28:38;;;;;;;20.13;7.70;;;;;;;28.39;61.56;99161.47;125466;1098;103020;-74
2021/07/21 08:31:08;;;;;;;15.93;6.30;;;;;;;28.80;61.38;99164.63;125421;1100;103074;-75
2021/07/21 08:33:36;;;;;;;17.30;6.23;;;;;;;29.13;61.43;99162.55;125731;1098;103001;-74
2021/07/21 08:36:05;;;;;;;14.33;6.83;;;;;;;29.56;61.04;99159.61;125412;1100;103048;-75
2021/07/21 08:38:33;;;;;;;16.77;6.27;;;;;;;29.65;60.46;99167.50;125435;1100;102951;-72
2021/07/21 08:41:03;;;;;;;16.23;5.33;;;;;;;29.55;60.69;99168.05;125384;1099;102923;-72
2021/07/21 08:43:31;;;;;;;16.70;5.73;;;;;;;29.83;60.43;99172.06;125412;1098;103041;-71
2021/07/21 08:45:59;;;;;;;16.27;6.03;;;;;;;29.99;59.51;99165.08;125438;1098;102947;-74
2021/07/21 08:48:28;;;;;;;17.83;5.73;;;;;;;30.00;58.83;99177.72;125410;1098;103000;-74
2021/07/21 08:50:59;;;;;;;17.23;6.33;;;;;;;30.17;59.15;99166.02;125504;1098;102948;-71
2021/07/21 08:53:31;;;;;;;12.03;5.23;;;;;;;30.54;58.79;99163.86;125410;1100;102949;-72
2021/07/21 08:56:00;;;;;;;11.13;5.30;;;;;;;30.41;58.12;99161.36;125523;1098;102926;-71
2021/07/21 08:58:31;;;;;;;10.70;4.83;;;;;;;30.50;58.27;99161.86;125494;1098;102921;-75
2021/07/21 09:01:00;;;;;;;12.57;4.90;;;;;;;30.38;57.88;99153.61;125517;1098;103072;-72
2021/07/21 09:03:34;;;;;;;12.68;5.10;;;;;;;30.09;57.24;99165.33;125495;1098;102934;-71
2021/07/21 09:06:03;;;;;;;21.43;5.30;;;;;;;30.04;57.04;99172.59;125372;1098;103047;-74
2021/07/21 09:08:35;;;;;;;13.53;4.90;;;;;;;29.55;56.60;99163.42;125193;1099;103262;-79
2021/07/21 09:11:04;;;;;;;7.27;4.30;;;;;;;29.42;56.65;99163.61;125376;1097;103135;-73
2021/07/21 09:13:38;;;;;;;14.67;4.60;;;;;;;28.82;55.98;99167.98;125290;1098;103229;-75
2021/07/21 09:16:11;;;;;;;13.13;4.30;;;;;;;28.29;55.78;99164.73;125417;1100;102932;-74
2021/07/21 09:18:57;;;;;;;13.10;5.40;;;;;;;27.71;55.60;99158.49;125335;1100;101750;-72
2021/07/21 09:21:29;;;;;;;12.43;4.70;;;;;;;27.46;55.23;99161.16;125403;1100;103081;-72
2021/07/21 09:24:00;;;;;;;10.67;4.77;;;;;;;27.23;55.46;99165.27;125395;1100;103078;-70
2021/07/21 09:26:28;;;;;;;12.73;4.93;;;;;;;26.93;55.39;99159.53;125160;1098;102950;-71
2021/07/21 09:28:59;;;;;;;10.63;4.63;;;;;;;26.45;54.87;99164.30;125539;1098;102943;-72
2021/07/21 09:31:44;;;;;;;10.03;4.87;;;;;;;26.00;54.72;99154.03;125388;1100;103129;-74
2021/07/21 09:34:25;;;;;;;;;;;;;;;25.65;54.79;99157.83;125460;1098;103011;-73
2021/07/21 09:37:12;;;;;;;12.33;5.27;;;;;;;25.29;54.76;99167.13;125409;1100;102946;-73
2021/07/21 09:39:44;;;;;;;11.25;5.30;;;;;;;25.10;54.42;99161.44;125409;1100;103076;-73
2021/07/21 09:42:13;;;;;;;11.13;4.53;;;;;;;24.84;54.26;99167.61;125391;1098;103132;-72
2021/07/21 09:44:48;;;;;;;12.33;5.10;;;;;;;24.66;54.20;99165.41;125431;1100;102924;-75
2021/07/21 09:47:22;;;;;;;9.50;4.53;;;;;;;24.85;53.83;99161.14;125438;1098;102937;-74
2021/07/21 09:50:25;;;;;;;13.30;5.10;;;;;;;25.02;53.88;99166.23;125543;1100;102974;-74
2021/07/21 09:53:05;;;;;;;9.60;4.50;;;;;;;25.00;54.21;99168.32;125391;1098;103051;-74
2021/07/21 09:55:37;;;;;;;12.33;4.97;;;;;;;25.05;54.36;99168.55;125410;1098;103017;-74
2021/07/21 09:58:09;;;;;;;14.27;4.73;;;;;;;24.95;53.97;99167.05;125372;1098;102946;-73
2021/07/21 10:00:41;;;;;;;18.23;5.43;;;;;;;24.82;54.21;99175.14;125418;1098;103036;-73
2021/07/21 10:03:17;;;;;;;14.40;5.30;;;;;;;24.58;54.04;99165.56;125417;1098;103358;-73
2021/07/21 10:05:59;;;;;;;15.43;5.67;;;;;;;24.32;54.09;99165.20;125375;1098;103201;-73
2021/07/21 10:08:27;;;;;;;13.40;5.03;;;;;;;24.06;53.94;99172.14;125437;1097;102945;-75
2021/07/21 10:11:00;;;;;;;11.37;4.53;;;;;;;23.88;53.73;99161.73;125377;1098;103421;-77
2021/07/21 10:13:36;;;;;;;15.43;5.17;;;;;;;23.68;53.63;99166.13;125387;1100;103107;-76
2021/07/21 10:16:06;;;;;;;13.63;5.40;;;;;;;23.54;54.01;99178.74;125429;1098;103100;-73
2021/07/21 10:18:34;;;;;;;13.10;5.57;;;;;;;23.46;53.67;99172.40;125385;1098;103220;-76
2021/07/21 10:21:03;;;;;;;10.67;4.57;;;;;;;23.37;53.82;99168.16;125449;1098;103010;-72
2021/07/21 10:23:31;;;;;;;13.03;4.93;;;;;;;23.29;53.81;99162.84;125408;1100;103013;-75
2021/07/21 10:26:00;;;;;;;12.40;5.23;;;;;;;23.20;53.75;99159.39;125425;1098;103004;-77
2021/07/21 10:28:28;;;;;;;19.03;5.63;;;;;;;23.09;53.72;99173.44;125445;1100;103108;-77
2021/07/21 10:31:00;;;;;;;11.60;5.17;;;;;;;22.96;53.59;99177.66;125422;1098;102949;-77
2021/07/21 10:33:32;;;;;;;13.08;4.80;;;;;;;22.87;53.33;99170.66;125414;1098;103061;-75
2021/07/21 10:36:02;;;;;;;7.55;4.20;;;;;;;22.83;53.53;99167.50;125431;1098;102991;-74
2021/07/21 10:38:34;;;;;;;14.93;4.73;;;;;;;22.79;53.71;99179.75;126562;1098;102924;-76
2021/07/21 10:41:05;;;;;;;13.13;4.50;;;;;;;22.65;53.49;99186.02;125526;1098;103100;-75
2021/07/21 10:43:36;;;;;;;20.87;4.77;;;;;;;22.57;53.57;99179.68;125391;1099;103175;-74
2021/07/21 10:46:31;;;;;;;10.97;5.07;;;;;;;22.53;53.82;99183.79;125528;1100;103008;-77
2021/07/21 10:49:29;;;;;;;14.63;5.63;;;;;;;22.53;53.89;99175.66;125472;1098;102935;-74
2021/07/21 11:00:28;;;;;;;14.87;4.63;;;;;;;22.82;53.68;99173.13;125516;1098;102948;-74
2021/07/21 11:03:26;;;;;;;16.37;4.73;;;;;;;22.90;53.69;99171.14;125418;1098;103022;-76
2021/07/21 11:06:07;;;;;;;12.73;5.07;;;;;;;22.93;53.92;99175.33;125544;1099;102929;-75
2021/07/21 11:08:52;;;;;;;12.37;4.50;;;;;;;22.94;54.02;99168.88;125533;1098;103013;-77
2021/07/21 11:11:25;;;;;;;13.37;4.23;;;;;;;22.93;53.84;99177.22;126815;1099;100898;-76
2021/07/21 11:14:00;;;;;;;10.53;4.20;;;;;;;22.90;54.10;99176.56;125541;1100;103247;-75
2021/07/21 11:16:45;;;;;;;9.13;4.33;;;;;;;22.87;54.02;99171.52;125555;1100;102955;-77
2021/07/21 11:19:42;;;;;;;13.20;4.43;;;;;;;22.81;54.10;99172.27;125530;1100;102926;-75
2021/07/21 11:22:11;;;;;;;11.30;4.10;;;;;;;22.78;53.72;99178.06;125548;1098;102972;-76
2021/07/21 11:25:05;;;;;;;10.50;4.30;;;;;;;22.75;53.90;99178.44;125504;1098;102926;-76
2021/07/21 11:28:01;;;;;;;12.45;4.60;;;;;;;22.77;54.06;99178.27;125420;1100;102929;-75
2021/07/21 11:30:47;;;;;;;8.37;4.00;;;;;;;22.78;54.46;99175.36;125501;1100;102950;-75
2021/07/21 11:33:50;;;;;;;10.47;4.00;;;;;;;22.82;54.24;99175.84;125512;1100;102925;-74
2021/07/21 11:36:49;;;;;;;13.97;5.27;;;;;;;22.89;54.16;99169.45;125526;1099;103021;-77
2021/07/21 11:39:47;;;;;;;10.97;4.50;;;;;;;23.03;54.00;99181.30;125511;1098;103557;-77
2021/07/21 11:42:31;;;;;;;7.77;3.63;;;;;;;23.22;54.11;99170.92;125489;1099;103055;-75
2021/07/21 11:45:02;;;;;;;11.73;4.40;;;;;;;23.41;53.87;99169.45;125448;1099;103020;-76
2021/07/21 11:47:44;;;;;;;14.37;4.50;;;;;;;23.53;54.46;99174.34;125460;1099;103072;-75